sensor_id;sensor_type;location;lat;lon;timestamp;P1;durP1;ratioP1;P2;durP2;ratioP2
14292;SDS011;62290;59.420;17.842;2023-01-15T00:00:00;5.82;;;1.48;;
14292;SDS011;62290;59.420;17.842;2023-01-15T00:02:30;2.95;;;1.10;;
14292;SDS011;62290;59.420;17.842;2023-01-15T00:04:58;3.60;;;1.33;;
14292;SDS011;62290;59.420;17.842;2023-01-15T00:07:28;4.93;;;1.40;;
14292;SDS011;62290;59.420;17.842;2023-01-15T00:09:57;5.63;;;1.17;;
14292;SDS011;62290;59.420;17.842;2023-01-15T00:12:26;4.85;;;1.55;;
14292;SDS011;62290;59.420;17.842;2023-01-15T00:14:54;9.18;;;1.90;;
14292;SDS011;62290;59.420;17.842;2023-01-15T00:17:23;4.80;;;1.30;;
14292;SDS011;62290;59.420;17.842;2023-01-15T00:19:52;5.75;;;1.75;;
14292;SDS011;62290;59.420;17.842;2023-01-15T00:22:20;5.90;;;1.95;;
14292;SDS011;62290;59.420;17.842;2023-01-15T00:24:48;5.13;;;1.67;;
14292;SDS011;62290;59.420;17.842;2023-01-15T00:27:35;3.85;;;1.55;;
14292;SDS011;62290;59.420;17.842;2023-01-15T00:30:08;4.70;;;1.48;;
14292;SDS011;62290;59.420;17.842;2023-01-15T00:32:38;6.43;;;1.75;;
14292;SDS011;62290;59.420;17.842;2023-01-15T00:35:07;3.78;;;1.42;;
14292;SDS011;62290;59.420;17.842;2023-01-15T00:37:40;4.00;;;1.27;;
14292;SDS011;62290;59.420;17.842;2023-01-15T00:40:09;3.75;;;1.30;;
14292;SDS011;62290;59.420;17.842;2023-01-15T00:42:40;3.15;;;1.48;;
14292;SDS011;62290;59.420;17.842;2023-01-15T00:45:12;5.07;;;1.63;;
14292;SDS011;62290;59.420;17.842;2023-01-15T00:47:41;6.10;;;1.40;;
14292;SDS011;62290;59.420;17.842;2023-01-15T00:50:11;4.78;;;1.60;;
14292;SDS011;62290;59.420;17.842;2023-01-15T00:52:41;5.95;;;1.52;;
14292;SDS011;62290;59.420;17.842;2023-01-15T00:55:09;3.90;;;1.08;;
14292;SDS011;62290;59.420;17.842;2023-01-15T00:57:37;1.52;;;0.90;;
14292;SDS011;62290;59.420;17.842;2023-01-15T01:00:07;3.33;;;1.10;;
14292;SDS011;62290;59.420;17.842;2023-01-15T01:02:37;4.25;;;1.15;;
14292;SDS011;62290;59.420;17.842;2023-01-15T01:05:06;4.53;;;1.17;;
14292;SDS011;62290;59.420;17.842;2023-01-15T01:07:35;4.38;;;1.25;;
14292;SDS011;62290;59.420;17.842;2023-01-15T01:10:03;2.72;;;1.10;;
14292;SDS011;62290;59.420;17.842;2023-01-15T01:12:34;2.00;;;1.08;;
14292;SDS011;62290;59.420;17.842;2023-01-15T01:15:03;2.72;;;1.05;;
14292;SDS011;62290;59.420;17.842;2023-01-15T01:17:32;1.95;;;0.93;;
14292;SDS011;62290;59.420;17.842;2023-01-15T01:20:01;4.63;;;1.48;;
14292;SDS011;62290;59.420;17.842;2023-01-15T01:22:30;3.55;;;1.23;;
14292;SDS011;62290;59.420;17.842;2023-01-15T01:25:00;1.42;;;0.70;;
14292;SDS011;62290;59.420;17.842;2023-01-15T01:27:28;1.98;;;0.82;;
14292;SDS011;62290;59.420;17.842;2023-01-15T01:29:57;2.40;;;0.98;;
14292;SDS011;62290;59.420;17.842;2023-01-15T01:32:25;2.75;;;1.20;;
14292;SDS011;62290;59.420;17.842;2023-01-15T01:34:56;1.63;;;0.80;;
14292;SDS011;62290;59.420;17.842;2023-01-15T01:37:24;3.17;;;1.00;;
14292;SDS011;62290;59.420;17.842;2023-01-15T01:39:52;5.45;;;1.08;;
14292;SDS011;62290;59.420;17.842;2023-01-15T01:42:20;3.90;;;0.90;;
14292;SDS011;62290;59.420;17.842;2023-01-15T01:45:00;4.05;;;1.20;;
14292;SDS011;62290;59.420;17.842;2023-01-15T01:47:35;1.33;;;0.70;;
14292;SDS011;62290;59.420;17.842;2023-01-15T01:50:06;2.15;;;0.70;;
14292;SDS011;62290;59.420;17.842;2023-01-15T01:52:37;1.48;;;0.77;;
14292;SDS011;62290;59.420;17.842;2023-01-15T01:55:11;1.67;;;0.80;;
14292;SDS011;62290;59.420;17.842;2023-01-15T01:57:42;1.45;;;0.90;;
14292;SDS011;62290;59.420;17.842;2023-01-15T02:00:11;1.35;;;0.70;;
14292;SDS011;62290;59.420;17.842;2023-01-15T02:02:42;1.58;;;0.70;;
14292;SDS011;62290;59.420;17.842;2023-01-15T02:05:15;1.10;;;0.63;;
14292;SDS011;62290;59.420;17.842;2023-01-15T02:07:48;3.42;;;0.85;;
14292;SDS011;62290;59.420;17.842;2023-01-15T02:10:16;1.23;;;0.68;;
14292;SDS011;62290;59.420;17.842;2023-01-15T02:12:45;2.40;;;0.80;;
14292;SDS011;62290;59.420;17.842;2023-01-15T02:15:21;2.97;;;0.90;;
14292;SDS011;62290;59.420;17.842;2023-01-15T02:17:55;1.65;;;0.57;;
14292;SDS011;62290;59.420;17.842;2023-01-15T02:20:31;2.85;;;0.90;;
14292;SDS011;62290;59.420;17.842;2023-01-15T02:23:09;2.28;;;0.40;;
14292;SDS011;62290;59.420;17.842;2023-01-15T02:26:02;1.30;;;0.50;;
14292;SDS011;62290;59.420;17.842;2023-01-15T02:28:42;1.17;;;0.63;;
14292;SDS011;62290;59.420;17.842;2023-01-15T02:31:15;1.17;;;0.70;;
14292;SDS011;62290;59.420;17.842;2023-01-15T02:33:50;5.63;;;0.77;;
14292;SDS011;62290;59.420;17.842;2023-01-15T02:36:23;0.73;;;0.70;;
14292;SDS011;62290;59.420;17.842;2023-01-15T02:38:58;1.52;;;0.82;;
14292;SDS011;62290;59.420;17.842;2023-01-15T02:41:31;1.25;;;0.47;;
14292;SDS011;62290;59.420;17.842;2023-01-15T02:44:05;1.40;;;0.65;;
14292;SDS011;62290;59.420;17.842;2023-01-15T02:46:36;1.10;;;0.70;;
14292;SDS011;62290;59.420;17.842;2023-01-15T02:49:09;1.15;;;0.60;;
14292;SDS011;62290;59.420;17.842;2023-01-15T02:51:43;0.77;;;0.60;;
14292;SDS011;62290;59.420;17.842;2023-01-15T02:54:18;1.55;;;0.60;;
14292;SDS011;62290;59.420;17.842;2023-01-15T02:56:47;1.08;;;0.68;;
14292;SDS011;62290;59.420;17.842;2023-01-15T02:59:19;1.98;;;0.68;;
14292;SDS011;62290;59.420;17.842;2023-01-15T03:01:52;0.50;;;0.50;;
14292;SDS011;62290;59.420;17.842;2023-01-15T03:04:27;1.10;;;0.70;;
14292;SDS011;62290;59.420;17.842;2023-01-15T03:07:00;0.85;;;0.50;;
14292;SDS011;62290;59.420;17.842;2023-01-15T03:09:35;1.58;;;0.60;;
14292;SDS011;62290;59.420;17.842;2023-01-15T03:12:05;0.57;;;0.47;;
14292;SDS011;62290;59.420;17.842;2023-01-15T03:14:45;0.98;;;0.68;;
14292;SDS011;62290;59.420;17.842;2023-01-15T03:17:22;1.00;;;0.63;;
14292;SDS011;62290;59.420;17.842;2023-01-15T03:19:56;1.27;;;0.70;;
14292;SDS011;62290;59.420;17.842;2023-01-15T03:22:33;2.00;;;0.60;;
14292;SDS011;62290;59.420;17.842;2023-01-15T03:25:05;0.73;;;0.47;;
14292;SDS011;62290;59.420;17.842;2023-01-15T03:27:41;1.10;;;0.50;;
14292;SDS011;62290;59.420;17.842;2023-01-15T03:30:13;1.27;;;0.70;;
14292;SDS011;62290;59.420;17.842;2023-01-15T03:32:45;1.10;;;0.65;;
14292;SDS011;62290;59.420;17.842;2023-01-15T03:38:14;1.60;;;0.70;;
14292;SDS011;62290;59.420;17.842;2023-01-15T03:40:47;0.75;;;0.68;;
14292;SDS011;62290;59.420;17.842;2023-01-15T03:43:26;0.75;;;0.60;;
14292;SDS011;62290;59.420;17.842;2023-01-15T03:46:16;1.17;;;0.45;;
14292;SDS011;62290;59.420;17.842;2023-01-15T03:48:57;0.50;;;0.50;;
14292;SDS011;62290;59.420;17.842;2023-01-15T03:51:32;0.85;;;0.47;;
14292;SDS011;62290;59.420;17.842;2023-01-15T03:54:06;1.45;;;0.52;;
14292;SDS011;62290;59.420;17.842;2023-01-15T03:56:40;1.10;;;0.70;;
14292;SDS011;62290;59.420;17.842;2023-01-15T03:59:23;1.02;;;0.50;;
14292;SDS011;62290;59.420;17.842;2023-01-15T04:02:01;1.67;;;0.60;;
14292;SDS011;62290;59.420;17.842;2023-01-15T04:04:32;0.30;;;0.30;;
14292;SDS011;62290;59.420;17.842;2023-01-15T04:07:02;0.47;;;0.40;;
14292;SDS011;62290;59.420;17.842;2023-01-15T04:09:35;1.10;;;0.60;;
14292;SDS011;62290;59.420;17.842;2023-01-15T04:12:06;5.63;;;0.50;;
14292;SDS011;62290;59.420;17.842;2023-01-15T04:14:38;1.02;;;0.47;;
14292;SDS011;62290;59.420;17.842;2023-01-15T04:17:14;0.63;;;0.35;;
14292;SDS011;62290;59.420;17.842;2023-01-15T04:19:42;0.40;;;0.32;;
14292;SDS011;62290;59.420;17.842;2023-01-15T04:22:11;1.10;;;0.40;;
14292;SDS011;62290;59.420;17.842;2023-01-15T04:24:40;2.15;;;0.75;;
14292;SDS011;62290;59.420;17.842;2023-01-15T04:27:08;0.73;;;0.55;;
14292;SDS011;62290;59.420;17.842;2023-01-15T04:29:36;0.70;;;0.70;;
14292;SDS011;62290;59.420;17.842;2023-01-15T04:32:04;2.15;;;0.50;;
14292;SDS011;62290;59.420;17.842;2023-01-15T04:34:34;1.08;;;0.60;;
14292;SDS011;62290;59.420;17.842;2023-01-15T04:37:02;1.90;;;0.90;;
14292;SDS011;62290;59.420;17.842;2023-01-15T04:39:30;0.50;;;0.50;;
14292;SDS011;62290;59.420;17.842;2023-01-15T04:41:58;0.60;;;0.43;;
14292;SDS011;62290;59.420;17.842;2023-01-15T04:44:43;1.15;;;0.50;;
14292;SDS011;62290;59.420;17.842;2023-01-15T04:47:11;0.55;;;0.45;;
14292;SDS011;62290;59.420;17.842;2023-01-15T04:49:41;0.73;;;0.50;;
14292;SDS011;62290;59.420;17.842;2023-01-15T04:52:09;2.20;;;0.57;;
14292;SDS011;62290;59.420;17.842;2023-01-15T04:54:37;0.28;;;0.28;;
14292;SDS011;62290;59.420;17.842;2023-01-15T04:57:05;0.70;;;0.57;;
14292;SDS011;62290;59.420;17.842;2023-01-15T04:59:33;1.00;;;0.43;;
14292;SDS011;62290;59.420;17.842;2023-01-15T05:02:01;0.65;;;0.40;;
14292;SDS011;62290;59.420;17.842;2023-01-15T05:04:32;0.88;;;0.45;;
14292;SDS011;62290;59.420;17.842;2023-01-15T05:07:03;0.50;;;0.38;;
14292;SDS011;62290;59.420;17.842;2023-01-15T05:09:31;0.93;;;0.40;;
14292;SDS011;62290;59.420;17.842;2023-01-15T05:12:00;0.90;;;0.45;;
14292;SDS011;62290;59.420;17.842;2023-01-15T05:14:28;0.65;;;0.40;;
14292;SDS011;62290;59.420;17.842;2023-01-15T05:16:56;0.98;;;0.50;;
14292;SDS011;62290;59.420;17.842;2023-01-15T05:19:24;1.20;;;0.63;;
14292;SDS011;62290;59.420;17.842;2023-01-15T05:21:52;0.50;;;0.30;;
14292;SDS011;62290;59.420;17.842;2023-01-15T05:24:21;1.42;;;0.32;;
14292;SDS011;62290;59.420;17.842;2023-01-15T05:26:49;0.60;;;0.38;;
14292;SDS011;62290;59.420;17.842;2023-01-15T05:29:17;3.25;;;0.68;;
14292;SDS011;62290;59.420;17.842;2023-01-15T05:31:45;0.75;;;0.40;;
14292;SDS011;62290;59.420;17.842;2023-01-15T05:34:13;0.40;;;0.30;;
14292;SDS011;62290;59.420;17.842;2023-01-15T05:36:41;0.50;;;0.40;;
14292;SDS011;62290;59.420;17.842;2023-01-15T05:39:10;0.45;;;0.30;;
14292;SDS011;62290;59.420;17.842;2023-01-15T05:41:39;0.63;;;0.35;;
14292;SDS011;62290;59.420;17.842;2023-01-15T05:44:17;0.65;;;0.40;;
14292;SDS011;62290;59.420;17.842;2023-01-15T05:46:47;1.05;;;0.40;;
14292;SDS011;62290;59.420;17.842;2023-01-15T05:49:16;0.40;;;0.35;;
14292;SDS011;62290;59.420;17.842;2023-01-15T05:51:46;0.38;;;0.30;;
14292;SDS011;62290;59.420;17.842;2023-01-15T05:54:15;0.68;;;0.30;;
14292;SDS011;62290;59.420;17.842;2023-01-15T05:56:46;0.22;;;0.22;;
14292;SDS011;62290;59.420;17.842;2023-01-15T05:59:15;1.02;;;0.50;;
14292;SDS011;62290;59.420;17.842;2023-01-15T06:01:44;1.05;;;0.35;;
14292;SDS011;62290;59.420;17.842;2023-01-15T06:04:12;0.30;;;0.30;;
14292;SDS011;62290;59.420;17.842;2023-01-15T06:06:40;0.52;;;0.43;;
14292;SDS011;62290;59.420;17.842;2023-01-15T06:09:09;0.80;;;0.40;;
14292;SDS011;62290;59.420;17.842;2023-01-15T06:11:38;0.43;;;0.40;;
14292;SDS011;62290;59.420;17.842;2023-01-15T06:14:08;0.30;;;0.30;;
14292;SDS011;62290;59.420;17.842;2023-01-15T06:16:37;0.43;;;0.40;;
14292;SDS011;62290;59.420;17.842;2023-01-15T06:19:07;0.80;;;0.50;;
14292;SDS011;62290;59.420;17.842;2023-01-15T06:21:36;0.77;;;0.30;;
14292;SDS011;62290;59.420;17.842;2023-01-15T06:24:05;2.42;;;0.40;;
14292;SDS011;62290;59.420;17.842;2023-01-15T06:26:33;0.50;;;0.30;;
14292;SDS011;62290;59.420;17.842;2023-01-15T06:29:01;0.50;;;0.30;;
14292;SDS011;62290;59.420;17.842;2023-01-15T06:31:31;4.22;;;0.75;;
14292;SDS011;62290;59.420;17.842;2023-01-15T06:33:59;0.68;;;0.30;;
14292;SDS011;62290;59.420;17.842;2023-01-15T06:36:27;0.47;;;0.35;;
14292;SDS011;62290;59.420;17.842;2023-01-15T06:38:55;0.20;;;0.20;;
14292;SDS011;62290;59.420;17.842;2023-01-15T06:41:24;0.20;;;0.20;;
14292;SDS011;62290;59.420;17.842;2023-01-15T06:44:10;0.28;;;0.22;;
14292;SDS011;62290;59.420;17.842;2023-01-15T06:47:00;0.20;;;0.20;;
14292;SDS011;62290;59.420;17.842;2023-01-15T06:49:49;0.80;;;0.30;;
14292;SDS011;62290;59.420;17.842;2023-01-15T06:52:18;0.20;;;0.20;;
14292;SDS011;62290;59.420;17.842;2023-01-15T06:54:46;0.20;;;0.20;;
14292;SDS011;62290;59.420;17.842;2023-01-15T06:57:14;0.43;;;0.20;;
14292;SDS011;62290;59.420;17.842;2023-01-15T06:59:42;0.30;;;0.20;;
14292;SDS011;62290;59.420;17.842;2023-01-15T07:02:11;0.35;;;0.28;;
14292;SDS011;62290;59.420;17.842;2023-01-15T07:04:39;0.75;;;0.40;;
14292;SDS011;62290;59.420;17.842;2023-01-15T07:07:07;0.73;;;0.10;;
14292;SDS011;62290;59.420;17.842;2023-01-15T07:09:35;0.50;;;0.30;;
14292;SDS011;62290;59.420;17.842;2023-01-15T07:12:03;1.20;;;0.40;;
14292;SDS011;62290;59.420;17.842;2023-01-15T07:14:32;0.40;;;0.30;;
14292;SDS011;62290;59.420;17.842;2023-01-15T07:17:00;2.40;;;0.40;;
14292;SDS011;62290;59.420;17.842;2023-01-15T07:19:29;0.25;;;0.25;;
14292;SDS011;62290;59.420;17.842;2023-01-15T07:21:57;0.20;;;0.20;;
14292;SDS011;62290;59.420;17.842;2023-01-15T07:24:25;1.60;;;0.50;;
14292;SDS011;62290;59.420;17.842;2023-01-15T07:26:53;0.77;;;0.40;;
14292;SDS011;62290;59.420;17.842;2023-01-15T07:29:21;0.60;;;0.40;;
14292;SDS011;62290;59.420;17.842;2023-01-15T07:31:49;1.65;;;0.50;;
14292;SDS011;62290;59.420;17.842;2023-01-15T07:34:18;3.92;;;1.10;;
14292;SDS011;62290;59.420;17.842;2023-01-15T07:36:48;0.75;;;0.30;;
14292;SDS011;62290;59.420;17.842;2023-01-15T07:39:16;2.28;;;0.47;;
14292;SDS011;62290;59.420;17.842;2023-01-15T07:41:44;0.77;;;0.32;;
14292;SDS011;62290;59.420;17.842;2023-01-15T07:44:33;1.27;;;0.52;;
14292;SDS011;62290;59.420;17.842;2023-01-15T07:47:19;1.73;;;0.50;;
14292;SDS011;62290;59.420;17.842;2023-01-15T07:50:06;1.98;;;0.40;;
14292;SDS011;62290;59.420;17.842;2023-01-15T07:52:38;2.67;;;0.60;;
14292;SDS011;62290;59.420;17.842;2023-01-15T07:55:06;2.40;;;0.73;;
14292;SDS011;62290;59.420;17.842;2023-01-15T07:57:35;2.78;;;0.50;;
14292;SDS011;62290;59.420;17.842;2023-01-15T08:00:04;2.17;;;0.50;;
14292;SDS011;62290;59.420;17.842;2023-01-15T08:02:40;0.75;;;0.30;;
14292;SDS011;62290;59.420;17.842;2023-01-15T08:05:09;1.38;;;0.60;;
14292;SDS011;62290;59.420;17.842;2023-01-15T08:07:39;1.23;;;0.73;;
14292;SDS011;62290;59.420;17.842;2023-01-15T08:10:09;1.08;;;0.32;;
14292;SDS011;62290;59.420;17.842;2023-01-15T08:12:39;2.22;;;0.40;;
14292;SDS011;62290;59.420;17.842;2023-01-15T08:15:24;2.10;;;0.57;;
14292;SDS011;62290;59.420;17.842;2023-01-15T08:17:53;1.30;;;0.50;;
14292;SDS011;62290;59.420;17.842;2023-01-15T08:20:21;2.53;;;0.70;;
14292;SDS011;62290;59.420;17.842;2023-01-15T08:22:52;2.17;;;0.82;;
14292;SDS011;62290;59.420;17.842;2023-01-15T08:25:21;3.58;;;0.90;;
14292;SDS011;62290;59.420;17.842;2023-01-15T08:27:50;2.00;;;0.50;;
14292;SDS011;62290;59.420;17.842;2023-01-15T08:30:21;1.10;;;0.60;;
14292;SDS011;62290;59.420;17.842;2023-01-15T08:32:50;1.25;;;0.80;;
14292;SDS011;62290;59.420;17.842;2023-01-15T08:35:19;1.58;;;0.73;;
14292;SDS011;62290;59.420;17.842;2023-01-15T08:37:48;1.58;;;0.70;;
14292;SDS011;62290;59.420;17.842;2023-01-15T08:40:17;1.08;;;0.60;;
14292;SDS011;62290;59.420;17.842;2023-01-15T08:42:45;0.98;;;0.50;;
14292;SDS011;62290;59.420;17.842;2023-01-15T08:45:13;0.85;;;0.30;;
14292;SDS011;62290;59.420;17.842;2023-01-15T08:47:41;2.72;;;0.60;;
14292;SDS011;62290;59.420;17.842;2023-01-15T08:50:10;1.27;;;0.65;;
14292;SDS011;62290;59.420;17.842;2023-01-15T08:52:38;3.10;;;0.88;;
14292;SDS011;62290;59.420;17.842;2023-01-15T08:55:06;5.38;;;0.80;;
14292;SDS011;62290;59.420;17.842;2023-01-15T08:57:36;2.05;;;0.60;;
14292;SDS011;62290;59.420;17.842;2023-01-15T09:00:05;1.65;;;0.65;;
14292;SDS011;62290;59.420;17.842;2023-01-15T09:02:34;2.72;;;1.08;;
14292;SDS011;62290;59.420;17.842;2023-01-15T09:05:02;3.17;;;0.70;;
14292;SDS011;62290;59.420;17.842;2023-01-15T09:07:31;2.67;;;0.88;;
14292;SDS011;62290;59.420;17.842;2023-01-15T09:10:00;1.20;;;0.75;;
14292;SDS011;62290;59.420;17.842;2023-01-15T09:12:29;1.45;;;0.80;;
14292;SDS011;62290;59.420;17.842;2023-01-15T09:14:59;1.77;;;0.70;;
14292;SDS011;62290;59.420;17.842;2023-01-15T09:17:29;1.38;;;0.60;;
14292;SDS011;62290;59.420;17.842;2023-01-15T09:19:58;1.65;;;0.60;;
14292;SDS011;62290;59.420;17.842;2023-01-15T09:22:28;4.53;;;0.90;;
14292;SDS011;62290;59.420;17.842;2023-01-15T09:24:56;0.57;;;0.45;;
14292;SDS011;62290;59.420;17.842;2023-01-15T09:27:25;2.67;;;0.95;;
14292;SDS011;62290;59.420;17.842;2023-01-15T09:29:53;2.00;;;0.70;;
14292;SDS011;62290;59.420;17.842;2023-01-15T09:32:23;1.25;;;0.65;;
14292;SDS011;62290;59.420;17.842;2023-01-15T09:34:51;1.80;;;0.68;;
14292;SDS011;62290;59.420;17.842;2023-01-15T09:37:19;2.22;;;0.90;;
14292;SDS011;62290;59.420;17.842;2023-01-15T09:39:47;1.27;;;0.75;;
14292;SDS011;62290;59.420;17.842;2023-01-15T09:42:29;2.13;;;0.80;;
14292;SDS011;62290;59.420;17.842;2023-01-15T09:45:17;2.08;;;0.80;;
14292;SDS011;62290;59.420;17.842;2023-01-15T09:48:05;1.13;;;0.43;;
14292;SDS011;62290;59.420;17.842;2023-01-15T09:50:44;3.42;;;0.90;;
14292;SDS011;62290;59.420;17.842;2023-01-15T09:53:28;1.90;;;0.60;;
14292;SDS011;62290;59.420;17.842;2023-01-15T09:56:15;1.27;;;0.60;;
14292;SDS011;62290;59.420;17.842;2023-01-15T09:58:47;1.65;;;0.52;;
14292;SDS011;62290;59.420;17.842;2023-01-15T10:01:17;2.80;;;0.90;;
14292;SDS011;62290;59.420;17.842;2023-01-15T10:03:50;1.08;;;0.65;;
14292;SDS011;62290;59.420;17.842;2023-01-15T10:06:26;3.65;;;0.70;;
14292;SDS011;62290;59.420;17.842;2023-01-15T10:08:58;1.27;;;0.40;;
14292;SDS011;62290;59.420;17.842;2023-01-15T10:11:37;1.58;;;0.50;;
14292;SDS011;62290;59.420;17.842;2023-01-15T10:14:34;2.75;;;0.90;;
14292;SDS011;62290;59.420;17.842;2023-01-15T10:17:17;2.83;;;0.70;;
14292;SDS011;62290;59.420;17.842;2023-01-15T10:19:50;2.65;;;0.52;;
14292;SDS011;62290;59.420;17.842;2023-01-15T10:25:14;2.22;;;0.65;;
14292;SDS011;62290;59.420;17.842;2023-01-15T10:27:45;2.63;;;0.80;;
14292;SDS011;62290;59.420;17.842;2023-01-15T10:30:20;1.95;;;0.70;;
14292;SDS011;62290;59.420;17.842;2023-01-15T10:32:56;2.38;;;0.70;;
14292;SDS011;62290;59.420;17.842;2023-01-15T10:35:40;4.20;;;0.98;;
14292;SDS011;62290;59.420;17.842;2023-01-15T10:38:18;2.15;;;0.70;;
14292;SDS011;62290;59.420;17.842;2023-01-15T10:41:09;2.20;;;0.80;;
14292;SDS011;62290;59.420;17.842;2023-01-15T10:43:59;1.98;;;0.70;;
14292;SDS011;62290;59.420;17.842;2023-01-15T10:46:34;2.83;;;0.82;;
14292;SDS011;62290;59.420;17.842;2023-01-15T10:49:10;3.85;;;0.88;;
14292;SDS011;62290;59.420;17.842;2023-01-15T10:51:42;1.55;;;0.75;;
14292;SDS011;62290;59.420;17.842;2023-01-15T10:54:14;1.48;;;0.75;;
14292;SDS011;62290;59.420;17.842;2023-01-15T10:56:51;2.75;;;0.70;;
14292;SDS011;62290;59.420;17.842;2023-01-15T10:59:32;2.83;;;0.70;;
14292;SDS011;62290;59.420;17.842;2023-01-15T11:02:12;1.92;;;0.90;;
14292;SDS011;62290;59.420;17.842;2023-01-15T11:04:50;1.00;;;0.50;;
14292;SDS011;62290;59.420;17.842;2023-01-15T11:07:21;3.88;;;1.20;;
14292;SDS011;62290;59.420;17.842;2023-01-15T11:10:07;3.50;;;0.95;;
14292;SDS011;62290;59.420;17.842;2023-01-15T11:12:37;1.50;;;0.80;;
14292;SDS011;62290;59.420;17.842;2023-01-15T11:15:25;2.47;;;1.20;;
14292;SDS011;62290;59.420;17.842;2023-01-15T11:18:12;1.67;;;0.75;;
14292;SDS011;62290;59.420;17.842;2023-01-15T11:21:00;2.47;;;0.77;;
14292;SDS011;62290;59.420;17.842;2023-01-15T11:23:33;2.42;;;1.00;;
14292;SDS011;62290;59.420;17.842;2023-01-15T11:26:02;3.15;;;0.77;;
14292;SDS011;62290;59.420;17.842;2023-01-15T11:28:31;2.30;;;1.08;;
14292;SDS011;62290;59.420;17.842;2023-01-15T11:31:05;3.08;;;1.13;;
14292;SDS011;62290;59.420;17.842;2023-01-15T11:33:34;4.38;;;1.00;;
14292;SDS011;62290;59.420;17.842;2023-01-15T11:36:04;2.85;;;1.30;;
14292;SDS011;62290;59.420;17.842;2023-01-15T11:38:43;2.65;;;0.70;;
14292;SDS011;62290;59.420;17.842;2023-01-15T11:41:18;1.90;;;0.75;;
14292;SDS011;62290;59.420;17.842;2023-01-15T11:43:54;2.85;;;0.85;;
14292;SDS011;62290;59.420;17.842;2023-01-15T11:46:40;4.10;;;1.20;;
14292;SDS011;62290;59.420;17.842;2023-01-15T11:49:26;7.85;;;1.70;;
14292;SDS011;62290;59.420;17.842;2023-01-15T11:52:12;4.75;;;1.45;;
14292;SDS011;62290;59.420;17.842;2023-01-15T11:54:45;9.90;;;1.88;;
14292;SDS011;62290;59.420;17.842;2023-01-15T11:57:23;6.97;;;1.27;;
14292;SDS011;62290;59.420;17.842;2023-01-15T11:59:54;4.28;;;1.50;;
14292;SDS011;62290;59.420;17.842;2023-01-15T12:02:26;4.97;;;1.40;;
14292;SDS011;62290;59.420;17.842;2023-01-15T12:04:59;7.63;;;1.58;;
14292;SDS011;62290;59.420;17.842;2023-01-15T12:07:29;8.50;;;2.00;;
14292;SDS011;62290;59.420;17.842;2023-01-15T12:10:08;4.93;;;1.40;;
14292;SDS011;62290;59.420;17.842;2023-01-15T12:12:46;12.70;;;1.80;;
14292;SDS011;62290;59.420;17.842;2023-01-15T12:15:37;4.40;;;1.10;;
14292;SDS011;62290;59.420;17.842;2023-01-15T12:18:26;4.97;;;1.35;;
14292;SDS011;62290;59.420;17.842;2023-01-15T12:21:20;2.90;;;1.30;;
14292;SDS011;62290;59.420;17.842;2023-01-15T12:24:03;3.90;;;1.40;;
14292;SDS011;62290;59.420;17.842;2023-01-15T12:26:47;5.65;;;1.52;;
14292;SDS011;62290;59.420;17.842;2023-01-15T12:29:27;5.05;;;1.70;;
14292;SDS011;62290;59.420;17.842;2023-01-15T12:32:07;3.78;;;1.63;;
14292;SDS011;62290;59.420;17.842;2023-01-15T12:34:42;3.65;;;1.60;;
14292;SDS011;62290;59.420;17.842;2023-01-15T12:37:16;4.97;;;1.60;;
14292;SDS011;62290;59.420;17.842;2023-01-15T12:39:51;7.25;;;2.13;;
14292;SDS011;62290;59.420;17.842;2023-01-15T12:42:27;4.93;;;1.50;;
14292;SDS011;62290;59.420;17.842;2023-01-15T12:45:18;10.15;;;3.03;;
14292;SDS011;62290;59.420;17.842;2023-01-15T12:47:50;6.20;;;2.20;;
14292;SDS011;62290;59.420;17.842;2023-01-15T12:50:31;5.75;;;2.05;;
14292;SDS011;62290;59.420;17.842;2023-01-15T12:53:11;4.35;;;1.88;;
14292;SDS011;62290;59.420;17.842;2023-01-15T12:55:43;4.07;;;1.50;;
14292;SDS011;62290;59.420;17.842;2023-01-15T12:58:22;3.03;;;1.40;;
14292;SDS011;62290;59.420;17.842;2023-01-15T13:01:02;4.75;;;1.75;;
14292;SDS011;62290;59.420;17.842;2023-01-15T13:03:39;3.85;;;1.30;;
14292;SDS011;62290;59.420;17.842;2023-01-15T13:06:16;4.32;;;1.40;;
14292;SDS011;62290;59.420;17.842;2023-01-15T13:08:48;6.47;;;1.55;;
14292;SDS011;62290;59.420;17.842;2023-01-15T13:11:22;5.57;;;1.52;;
14292;SDS011;62290;59.420;17.842;2023-01-15T13:13:51;4.00;;;1.40;;
14292;SDS011;62290;59.420;17.842;2023-01-15T13:16:27;3.67;;;1.10;;
14292;SDS011;62290;59.420;17.842;2023-01-15T13:19:13;3.65;;;1.40;;
14292;SDS011;62290;59.420;17.842;2023-01-15T13:21:49;3.70;;;1.13;;
14292;SDS011;62290;59.420;17.842;2023-01-15T13:24:30;2.95;;;1.15;;
14292;SDS011;62290;59.420;17.842;2023-01-15T13:27:15;2.90;;;1.27;;
14292;SDS011;62290;59.420;17.842;2023-01-15T13:30:03;3.95;;;1.30;;
14292;SDS011;62290;59.420;17.842;2023-01-15T13:32:41;3.60;;;1.02;;
14292;SDS011;62290;59.420;17.842;2023-01-15T13:35:12;3.58;;;1.13;;
14292;SDS011;62290;59.420;17.842;2023-01-15T13:37:47;4.35;;;1.35;;
14292;SDS011;62290;59.420;17.842;2023-01-15T13:40:21;2.90;;;1.08;;
14292;SDS011;62290;59.420;17.842;2023-01-15T13:42:52;2.13;;;0.80;;
14292;SDS011;62290;59.420;17.842;2023-01-15T13:45:32;2.70;;;0.90;;
14292;SDS011;62290;59.420;17.842;2023-01-15T13:48:05;3.13;;;1.00;;
14292;SDS011;62290;59.420;17.842;2023-01-15T13:50:35;4.10;;;1.20;;
14292;SDS011;62290;59.420;17.842;2023-01-15T13:53:12;2.35;;;1.05;;
14292;SDS011;62290;59.420;17.842;2023-01-15T13:55:48;6.22;;;1.05;;
14292;SDS011;62290;59.420;17.842;2023-01-15T13:58:19;2.70;;;1.27;;
14292;SDS011;62290;59.420;17.842;2023-01-15T14:01:00;3.15;;;0.80;;
14292;SDS011;62290;59.420;17.842;2023-01-15T14:03:35;2.97;;;1.10;;
14292;SDS011;62290;59.420;17.842;2023-01-15T14:06:05;2.95;;;1.17;;
14292;SDS011;62290;59.420;17.842;2023-01-15T14:08:38;8.75;;;1.30;;
14292;SDS011;62290;59.420;17.842;2023-01-15T14:14:33;3.83;;;1.10;;
14292;SDS011;62290;59.420;17.842;2023-01-15T14:20:27;3.60;;;1.48;;
14292;SDS011;62290;59.420;17.842;2023-01-15T14:23:08;2.08;;;1.00;;
14292;SDS011;62290;59.420;17.842;2023-01-15T14:25:53;4.25;;;1.13;;
14292;SDS011;62290;59.420;17.842;2023-01-15T14:28:33;3.22;;;1.20;;
14292;SDS011;62290;59.420;17.842;2023-01-15T14:31:16;2.60;;;0.93;;
14292;SDS011;62290;59.420;17.842;2023-01-15T14:34:03;4.20;;;1.20;;
14292;SDS011;62290;59.420;17.842;2023-01-15T14:36:45;2.90;;;0.88;;
14292;SDS011;62290;59.420;17.842;2023-01-15T14:39:28;4.03;;;1.42;;
14292;SDS011;62290;59.420;17.842;2023-01-15T14:42:02;2.63;;;1.10;;
14292;SDS011;62290;59.420;17.842;2023-01-15T14:44:55;2.72;;;1.27;;
14292;SDS011;62290;59.420;17.842;2023-01-15T14:47:27;3.47;;;1.15;;
14292;SDS011;62290;59.420;17.842;2023-01-15T14:52:53;3.78;;;1.02;;
14292;SDS011;62290;59.420;17.842;2023-01-15T14:55:25;4.60;;;1.15;;
14292;SDS011;62290;59.420;17.842;2023-01-15T14:57:55;2.97;;;0.90;;
14292;SDS011;62290;59.420;17.842;2023-01-15T15:00:28;6.50;;;1.55;;
14292;SDS011;62290;59.420;17.842;2023-01-15T15:03:01;3.33;;;1.27;;
14292;SDS011;62290;59.420;17.842;2023-01-15T15:05:39;3.35;;;1.13;;
14292;SDS011;62290;59.420;17.842;2023-01-15T15:08:10;3.17;;;1.00;;
14292;SDS011;62290;59.420;17.842;2023-01-15T15:10:40;4.22;;;1.58;;
14292;SDS011;62290;59.420;17.842;2023-01-15T15:13:12;3.72;;;1.25;;
14292;SDS011;62290;59.420;17.842;2023-01-15T15:15:45;2.83;;;1.40;;
14292;SDS011;62290;59.420;17.842;2023-01-15T15:18:27;3.75;;;1.42;;
14292;SDS011;62290;59.420;17.842;2023-01-15T15:21:00;3.40;;;1.27;;
14292;SDS011;62290;59.420;17.842;2023-01-15T15:23:35;2.35;;;1.00;;